Terminal Aerodrome Forecast
Issued by NWS

Home | Current Version | Previous Version | Text Only | Print | Product List | Glossary On
Versions: 1 2 3 4 5 6 7 8 9 10 11 12 13 14 15 16 17 18
000
FTUS45 KTFX 052320
TAFCTB
TAF
KCTB 052320Z 0600/0624 35008KT P6SM SCT020 OVC040
     FM060300 02005KT P6SM BKN040
     FM060600 VRB06KT P6SM VCFG FEW003 SCT040
     FM061500 17008KT P6SM SKC=

USA.gov is the U.S. government's official web portal to all federal, state and local government web resources and services.